createdAt,value
2022-08-22T00:01:53.201Z,14.80
2022-08-22T00:02:46.055Z,18.20
2022-08-22T00:03:02.490Z,21.40
2022-08-22T00:04:45.215Z,14.70
2022-08-22T00:07:43.615Z,14.70
2022-08-22T00:10:25.039Z,14.60
2022-08-22T00:13:04.605Z,14.60
2022-08-22T00:15:43.122Z,14.60
2022-08-22T00:18:33.969Z,14.60
2022-08-22T00:21:11.366Z,14.60
2022-08-22T00:23:51.125Z,14.50
2022-08-22T00:26:45.067Z,14.40
2022-08-22T00:29:17.722Z,14.30
2022-08-22T00:31:50.982Z,14.20
2022-08-22T00:34:36.377Z,14.20
2022-08-22T00:37:28.367Z,14.20
2022-08-22T00:40:23.301Z,14.00
2022-08-22T00:42:50.312Z,14.00
2022-08-22T00:45:35.458Z,14.00
2022-08-22T00:48:32.886Z,13.90
2022-08-22T00:51:14.994Z,14.00
2022-08-22T00:54:29.397Z,14.00
2022-08-22T00:57:11.452Z,13.90
2022-08-22T01:00:01.231Z,13.90
2022-08-22T01:02:37.144Z,13.80
2022-08-22T01:05:28.405Z,13.80
2022-08-22T01:07:58.534Z,13.80
2022-08-22T01:10:56.279Z,13.70
2022-08-22T01:13:37.782Z,13.70
2022-08-22T01:16:10.569Z,13.80
2022-08-22T01:19:06.458Z,13.70
2022-08-22T01:21:51.697Z,13.70
2022-08-22T01:25:14.995Z,13.70
2022-08-22T01:28:20.427Z,13.70
2022-08-22T01:31:02.195Z,13.80
2022-08-22T01:33:40.991Z,13.80
2022-08-22T01:36:40.577Z,13.70
2022-08-22T01:39:07.487Z,13.60
2022-08-22T01:41:59.645Z,13.60
2022-08-22T01:44:58.027Z,13.60
2022-08-22T01:47:37.368Z,13.70
2022-08-22T01:50:23.748Z,13.60
2022-08-22T01:53:14.686Z,13.60
2022-08-22T01:56:01.433Z,13.50
2022-08-22T01:58:31.997Z,13.50
2022-08-22T02:01:02.110Z,13.40
2022-08-22T02:03:37.430Z,13.30
2022-08-22T02:06:17.505Z,13.30
2022-08-22T02:09:09.132Z,13.30
2022-08-22T02:12:21.777Z,13.20
2022-08-22T02:15:08.021Z,13.30
2022-08-22T02:18:01.075Z,13.10
2022-08-22T02:20:55.612Z,13.10
2022-08-22T02:23:44.107Z,13.00
2022-08-22T02:26:35.576Z,13.00
2022-08-22T02:29:21.309Z,12.90
2022-08-22T02:32:05.416Z,12.90
2022-08-22T02:34:32.377Z,12.90
2022-08-22T02:37:02.676Z,12.80
2022-08-22T02:39:57.241Z,12.80
2022-08-22T02:42:30.165Z,12.80
2022-08-22T02:45:15.810Z,12.80
2022-08-22T02:47:52.852Z,12.80
2022-08-22T02:50:31.840Z,12.70
2022-08-22T02:53:21.288Z,12.70
2022-08-22T02:55:58.004Z,12.80
2022-08-22T02:58:29.508Z,12.90
2022-08-22T03:00:59.644Z,12.80
2022-08-22T03:03:30.105Z,12.90
2022-08-22T03:06:07.747Z,12.80
2022-08-22T03:08:39.212Z,12.70
2022-08-22T03:11:27.339Z,12.80
2022-08-22T03:14:09.652Z,12.80
2022-08-22T03:16:44.786Z,12.80
2022-08-22T03:19:44.127Z,12.90
2022-08-22T03:22:54.718Z,12.80
2022-08-22T03:25:32.435Z,12.70
2022-08-22T03:28:06.615Z,12.60
2022-08-22T03:30:36.866Z,12.70
2022-08-22T03:33:23.801Z,12.60
2022-08-22T03:36:24.749Z,12.60
2022-08-22T03:39:18.532Z,12.50
2022-08-22T03:42:41.059Z,12.50
2022-08-22T03:45:45.408Z,12.40
2022-08-22T03:48:30.470Z,12.40
2022-08-22T03:51:28.124Z,12.40
2022-08-22T03:54:22.177Z,12.30
2022-08-22T03:57:06.538Z,12.30
2022-08-22T03:59:47.575Z,12.30
2022-08-22T04:02:43.481Z,12.30
2022-08-22T04:05:32.129Z,12.20
2022-08-22T04:08:18.229Z,12.20
2022-08-22T04:11:19.168Z,12.20
2022-08-22T04:14:11.048Z,12.20
2022-08-22T04:16:53.144Z,12.10
2022-08-22T04:19:45.512Z,12.10
2022-08-22T04:22:21.419Z,12.10
2022-08-22T04:25:16.878Z,12.10
2022-08-22T04:28:03.470Z,12.20
2022-08-22T04:30:35.539Z,12.20
2022-08-22T04:33:14.472Z,12.20
2022-08-22T04:36:01.296Z,12.20
2022-08-22T04:38:37.259Z,12.20
2022-08-22T04:41:13.788Z,12.30
2022-08-22T04:44:22.725Z,12.30
2022-08-22T04:47:04.880Z,12.30
2022-08-22T04:49:46.999Z,12.40
2022-08-22T04:52:29.590Z,12.40
2022-08-22T04:55:15.674Z,12.60
2022-08-22T04:58:01.921Z,12.60
2022-08-22T05:00:56.812Z,12.60
2022-08-22T05:03:26.920Z,12.80
2022-08-22T05:05:55.802Z,12.80
2022-08-22T05:08:27.245Z,12.80
2022-08-22T05:10:55.186Z,12.80
2022-08-22T05:13:28.915Z,12.80
2022-08-22T05:16:03.420Z,12.90
2022-08-22T05:18:36.609Z,12.90
2022-08-22T05:21:07.541Z,13.00
2022-08-22T05:23:48.469Z,13.00
2022-08-22T05:26:17.295Z,13.00
2022-08-22T05:28:52.953Z,13.10
2022-08-22T05:31:32.113Z,13.20
2022-08-22T05:34:11.386Z,13.30
2022-08-22T05:36:46.798Z,13.50
2022-08-22T05:39:17.859Z,13.70
2022-08-22T05:41:46.038Z,13.90
2022-08-22T05:44:24.356Z,14.40
2022-08-22T05:47:00.157Z,16.60
2022-08-22T05:49:45.239Z,19.40
2022-08-22T05:52:34.803Z,21.50
2022-08-22T05:55:05.454Z,23.50
2022-08-22T05:57:38.314Z,25.00
2022-08-22T06:00:13.215Z,25.90
2022-08-22T06:03:00.661Z,26.50
2022-08-22T06:05:37.899Z,26.90
2022-08-22T06:08:30.112Z,27.70
2022-08-22T06:11:03.176Z,28.40
2022-08-22T06:13:41.453Z,29.00
2022-08-22T06:16:23.760Z,29.40
2022-08-22T06:18:52.543Z,29.90
2022-08-22T06:21:39.398Z,30.30
2022-08-22T06:24:13.390Z,30.60
2022-08-22T06:26:48.569Z,31.10
2022-08-22T06:29:29.450Z,31.60
2022-08-22T06:31:57.913Z,32.00
2022-08-22T06:34:29.540Z,32.50
2022-08-22T06:36:58.703Z,32.90
2022-08-22T06:39:35.089Z,33.30
2022-08-22T06:42:05.007Z,33.10
2022-08-22T06:44:57.965Z,32.50
2022-08-22T06:47:33.300Z,32.00
2022-08-22T06:50:06.262Z,32.30
2022-08-22T06:53:01.613Z,32.20
2022-08-22T06:55:30.463Z,32.60
2022-08-22T06:58:03.263Z,32.80
2022-08-22T07:00:33.417Z,33.30
2022-08-22T07:03:25.633Z,33.60
2022-08-22T07:05:55.865Z,33.70
2022-08-22T07:08:24.808Z,34.00
2022-08-22T07:11:13.158Z,34.40
2022-08-22T07:13:45.700Z,34.70
2022-08-22T07:16:13.189Z,34.80
2022-08-22T07:18:50.911Z,34.90
2022-08-22T07:21:42.854Z,35.00
2022-08-22T07:24:14.210Z,35.00
2022-08-22T07:27:12.904Z,35.00
2022-08-22T07:29:54.768Z,34.80
2022-08-22T07:32:29.058Z,34.60
2022-08-22T07:35:15.908Z,34.60
2022-08-22T07:38:01.749Z,34.10
2022-08-22T07:40:38.801Z,33.20
2022-08-22T07:43:18.972Z,32.90
2022-08-22T07:45:58.632Z,32.90
2022-08-22T07:48:59.310Z,32.70
2022-08-22T07:51:46.624Z,31.80
2022-08-22T07:54:17.172Z,30.70
2022-08-22T07:56:53.637Z,29.50
2022-08-22T07:59:22.321Z,28.90
2022-08-22T08:01:53.649Z,28.70
2022-08-22T08:04:27.303Z,28.70
2022-08-22T08:06:57.914Z,28.30
2022-08-22T08:09:35.516Z,27.60
2022-08-22T08:12:05.930Z,27.10
2022-08-22T08:14:36.674Z,27.00
2022-08-22T08:17:10.730Z,27.10
2022-08-22T08:19:41.549Z,27.10
2022-08-22T08:22:15.196Z,27.10
2022-08-22T08:24:45.378Z,27.10
2022-08-22T08:27:39.622Z,26.90
2022-08-22T08:30:43.421Z,26.80
2022-08-22T08:33:26.080Z,26.50
2022-08-22T08:36:25.180Z,26.30
2022-08-22T08:39:10.225Z,25.80
2022-08-22T08:42:11.398Z,25.70
2022-08-22T08:44:53.996Z,26.10
2022-08-22T08:47:39.878Z,26.40
2022-08-22T08:50:25.926Z,26.30
2022-08-22T08:53:13.267Z,26.30
2022-08-22T08:56:19.463Z,26.60
2022-08-22T08:59:03.736Z,26.90
2022-08-22T09:02:04.563Z,27.30
2022-08-22T09:05:01.427Z,27.40
2022-08-22T09:07:46.270Z,27.00
2022-08-22T09:10:30.284Z,26.70
2022-08-22T09:13:11.661Z,26.60
2022-08-22T09:16:04.699Z,26.90
2022-08-22T09:18:41.908Z,27.00
2022-08-22T09:21:32.908Z,27.30
2022-08-22T09:23:59.824Z,27.20
2022-08-22T09:26:34.500Z,26.90
2022-08-22T09:29:10.414Z,26.40
2022-08-22T09:32:03.620Z,26.10
2022-08-22T09:34:34.683Z,26.10
2022-08-22T09:37:26.024Z,26.10
2022-08-22T09:39:59.737Z,26.00
2022-08-22T09:42:33.811Z,26.60
2022-08-22T09:45:22.769Z,27.10
2022-08-22T09:48:26.759Z,27.40
2022-08-22T09:51:32.386Z,27.50
2022-08-22T09:54:10.219Z,27.70
2022-08-22T09:56:49.598Z,27.20
2022-08-22T09:59:44.952Z,27.10
2022-08-22T10:02:43.890Z,26.90
2022-08-22T10:05:43.926Z,27.30
2022-08-22T10:08:33.277Z,27.70
2022-08-22T10:11:34.333Z,27.40
2022-08-22T10:14:22.343Z,26.50
2022-08-22T10:17:08.336Z,25.90
2022-08-22T10:20:31.441Z,25.70
2022-08-22T10:23:14.832Z,25.30
2022-08-22T10:26:03.727Z,25.70
2022-08-22T10:28:55.206Z,25.60
2022-08-22T10:31:45.100Z,25.60
2022-08-22T10:34:35.254Z,26.50
2022-08-22T10:37:11.249Z,27.40
2022-08-22T10:39:48.826Z,27.50
2022-08-22T10:42:42.168Z,27.40
2022-08-22T10:45:35.967Z,27.80
2022-08-22T10:48:07.981Z,27.40
2022-08-22T10:50:44.974Z,27.70
2022-08-22T10:53:51.551Z,28.30
2022-08-22T10:56:45.597Z,28.90
2022-08-22T10:59:18.825Z,29.10
2022-08-22T11:02:28.526Z,29.50
2022-08-22T11:05:17.625Z,30.10
2022-08-22T11:08:04.354Z,30.40
2022-08-22T11:10:39.969Z,30.00
2022-08-22T11:13:35.894Z,28.50
2022-08-22T11:16:41.958Z,27.70
2022-08-22T11:19:15.973Z,28.10
2022-08-22T11:21:54.958Z,28.80
2022-08-22T11:24:34.856Z,28.90
2022-08-22T11:27:12.990Z,28.40
2022-08-22T11:30:18.500Z,28.00
2022-08-22T11:33:06.227Z,27.70
2022-08-22T11:35:51.162Z,27.40
2022-08-22T11:38:36.321Z,27.60
2022-08-22T11:41:12.762Z,27.90
2022-08-22T11:44:21.023Z,28.30
2022-08-22T11:46:51.236Z,28.70
2022-08-22T11:49:41.828Z,28.70
2022-08-22T11:52:28.282Z,28.20
2022-08-22T11:55:07.185Z,27.50
2022-08-22T11:57:47.505Z,27.10
2022-08-22T12:00:20.620Z,27.00
2022-08-22T12:03:16.514Z,27.60
2022-08-22T12:05:47.173Z,28.40
2022-08-22T12:08:24.761Z,28.90
2022-08-22T12:11:16.893Z,28.80
2022-08-22T12:14:02.358Z,28.30
2022-08-22T12:16:47.291Z,27.60
2022-08-22T12:19:35.398Z,27.20
2022-08-22T12:22:54.951Z,27.00
2022-08-22T12:25:34.838Z,27.30
2022-08-22T12:28:32.945Z,28.40
2022-08-22T12:31:56.499Z,29.30
2022-08-22T12:34:52.833Z,29.90
2022-08-22T12:37:52.273Z,30.10
2022-08-22T12:41:28.037Z,30.60
2022-08-22T12:44:17.146Z,30.20
2022-08-22T12:46:50.103Z,29.80
2022-08-22T12:49:31.415Z,30.20
2022-08-22T12:52:39.745Z,30.30
2022-08-22T12:55:16.244Z,29.90
2022-08-22T12:58:15.422Z,28.80
2022-08-22T13:00:47.510Z,28.30
2022-08-22T13:03:25.265Z,28.60
2022-08-22T13:05:59.896Z,29.20
2022-08-22T13:08:37.271Z,29.10
2022-08-22T13:11:22.971Z,29.40
2022-08-22T13:14:01.019Z,29.40
2022-08-22T13:16:37.788Z,29.90
2022-08-22T13:19:13.692Z,30.20
2022-08-22T13:21:48.781Z,30.30
2022-08-22T13:24:38.610Z,29.80
2022-08-22T13:27:15.140Z,28.90
2022-08-22T13:29:57.171Z,27.90
2022-08-22T13:32:38.323Z,27.30
2022-08-22T13:35:09.894Z,27.20
2022-08-22T13:37:43.453Z,27.40
2022-08-22T13:40:21.740Z,28.10
2022-08-22T13:42:55.215Z,28.70
2022-08-22T13:45:25.993Z,29.50
2022-08-22T13:47:58.053Z,29.90
2022-08-22T13:50:29.046Z,30.30
2022-08-22T13:53:09.544Z,30.50
2022-08-22T13:55:48.996Z,30.70
2022-08-22T13:58:32.144Z,30.50
2022-08-22T14:01:25.313Z,30.20
2022-08-22T14:04:35.895Z,30.20
2022-08-22T14:07:04.512Z,30.10
2022-08-22T14:09:56.121Z,29.50
2022-08-22T14:12:49.920Z,28.90
2022-08-22T14:15:23.593Z,28.10
2022-08-22T14:18:00.802Z,27.30
2022-08-22T14:20:33.423Z,26.70
2022-08-22T14:23:09.426Z,26.50
2022-08-22T14:25:41.903Z,26.40
2022-08-22T14:28:27.476Z,26.70
2022-08-22T14:31:13.524Z,27.30
2022-08-22T14:33:57.893Z,27.60
2022-08-22T14:36:35.903Z,27.80
2022-08-22T14:39:16.656Z,28.00
2022-08-22T14:42:04.182Z,28.10
2022-08-22T14:44:44.811Z,28.00
2022-08-22T14:47:55.115Z,28.20
2022-08-22T14:50:39.766Z,28.10
2022-08-22T14:53:13.020Z,28.60
2022-08-22T14:55:43.112Z,28.80
2022-08-22T14:58:26.561Z,28.70
2022-08-22T15:00:56.497Z,28.30
2022-08-22T15:03:29.446Z,27.80
2022-08-22T15:06:05.147Z,27.60
2022-08-22T15:08:37.622Z,27.40
2022-08-22T15:11:25.588Z,27.10
2022-08-22T15:14:27.047Z,26.60
2022-08-22T15:16:59.726Z,26.20
2022-08-22T15:19:36.227Z,25.90
2022-08-22T15:22:27.504Z,25.70
2022-08-22T15:25:40.989Z,25.60
2022-08-22T15:28:13.964Z,25.50
2022-08-22T15:30:44.586Z,25.40
2022-08-22T15:33:43.271Z,25.20
2022-08-22T15:36:24.759Z,25.40
2022-08-22T15:39:16.780Z,25.70
2022-08-22T15:41:48.470Z,26.10
2022-08-22T15:44:32.608Z,26.40
2022-08-22T15:47:00.267Z,26.60
2022-08-22T15:49:35.897Z,26.60
2022-08-22T15:52:11.164Z,26.60
2022-08-22T15:54:53.384Z,26.60
2022-08-22T15:57:41.796Z,26.70
2022-08-22T16:00:29.727Z,26.70
2022-08-22T16:03:26.563Z,26.50
2022-08-22T16:06:14.685Z,26.50
2022-08-22T16:08:51.199Z,26.50
2022-08-22T16:11:24.257Z,26.50
2022-08-22T16:14:19.164Z,26.30
2022-08-22T16:16:52.971Z,26.10
2022-08-22T16:19:25.515Z,26.00
2022-08-22T16:21:52.481Z,25.90
2022-08-22T16:24:21.735Z,25.90
2022-08-22T16:26:49.060Z,25.80
2022-08-22T16:29:41.212Z,25.80
2022-08-22T16:32:11.963Z,25.70
2022-08-22T16:34:46.076Z,25.70
2022-08-22T16:37:18.124Z,25.50
2022-08-22T16:40:01.907Z,25.40
2022-08-22T16:42:52.258Z,25.50
2022-08-22T16:45:21.992Z,25.40
2022-08-22T16:47:58.620Z,25.40
2022-08-22T16:50:28.356Z,25.30
2022-08-22T16:53:10.239Z,25.20
2022-08-22T16:56:04.815Z,25.20
2022-08-22T16:58:59.202Z,25.00
2022-08-22T17:02:01.191Z,25.00
2022-08-22T17:04:54.084Z,24.90
2022-08-22T17:07:28.769Z,24.80
2022-08-22T17:10:14.391Z,24.80
2022-08-22T17:12:52.951Z,24.70
2022-08-22T17:15:44.712Z,24.60
2022-08-22T17:18:24.553Z,24.60
2022-08-22T17:21:06.548Z,24.50
2022-08-22T17:24:00.073Z,24.50
2022-08-22T17:26:39.401Z,24.40
2022-08-22T17:29:20.726Z,24.40
2022-08-22T17:31:55.637Z,24.20
2022-08-22T17:35:00.570Z,24.20
2022-08-22T17:37:42.947Z,24.10
2022-08-22T17:40:16.189Z,24.10
2022-08-22T17:43:01.409Z,24.00
2022-08-22T17:46:12.950Z,23.80
2022-08-22T17:48:49.463Z,23.70
2022-08-22T17:51:30.408Z,23.50
2022-08-22T17:54:06.037Z,23.40
2022-08-22T17:57:05.412Z,23.30
2022-08-22T17:59:56.518Z,23.10
2022-08-22T18:02:29.732Z,22.90
2022-08-22T18:05:10.491Z,22.70
2022-08-22T18:07:46.458Z,22.70
2022-08-22T18:10:51.508Z,22.60
2022-08-22T18:13:53.943Z,22.50
2022-08-22T18:16:25.236Z,22.40
2022-08-22T18:18:57.613Z,22.20
2022-08-22T18:21:34.145Z,22.10
2022-08-22T18:24:11.586Z,22.00
2022-08-22T18:26:49.010Z,21.90
2022-08-22T18:29:23.876Z,21.70
2022-08-22T18:32:00.871Z,21.60
2022-08-22T18:34:54.249Z,21.50
2022-08-22T18:37:31.725Z,21.50
2022-08-22T18:40:28.034Z,21.40
2022-08-22T18:43:39.506Z,21.20
2022-08-22T18:46:28.850Z,21.20
2022-08-22T18:49:15.189Z,21.20
2022-08-22T18:51:43.531Z,21.20
2022-08-22T18:54:27.888Z,21.10
2022-08-22T18:57:05.751Z,21.00
2022-08-22T18:59:48.315Z,20.90
2022-08-22T19:02:34.008Z,20.70
2022-08-22T19:05:13.884Z,20.40
2022-08-22T19:08:00.141Z,20.30
2022-08-22T19:10:54.651Z,20.10
2022-08-22T19:13:50.842Z,20.00
2022-08-22T19:16:36.481Z,19.90
2022-08-22T19:19:17.852Z,19.80
2022-08-22T19:22:23.014Z,19.60
2022-08-22T19:25:26.394Z,19.60
2022-08-22T19:28:11.737Z,19.60
2022-08-22T19:31:05.752Z,19.50
2022-08-22T19:33:41.083Z,19.50
2022-08-22T19:36:29.460Z,19.50
2022-08-22T19:38:58.413Z,19.50
2022-08-22T19:41:40.336Z,19.40
2022-08-22T19:44:38.214Z,19.30
2022-08-22T19:47:17.560Z,19.20
2022-08-22T19:49:56.076Z,19.10
2022-08-22T19:52:30.281Z,19.00
2022-08-22T19:55:42.132Z,19.00
2022-08-22T19:58:50.809Z,18.90
2022-08-22T20:02:00.672Z,18.80
2022-08-22T20:04:48.504Z,18.60
2022-08-22T20:07:33.578Z,18.60
2022-08-22T20:10:34.440Z,18.50
2022-08-22T20:13:22.237Z,18.40
2022-08-22T20:16:13.691Z,18.20
2022-08-22T20:19:08.789Z,18.10
2022-08-22T20:21:42.419Z,17.90
2022-08-22T20:24:16.395Z,17.80
2022-08-22T20:27:09.964Z,17.90
2022-08-22T20:29:37.071Z,17.90
2022-08-22T20:32:06.278Z,17.90
2022-08-22T20:34:38.184Z,17.90
2022-08-22T20:37:29.343Z,17.80
2022-08-22T20:40:25.767Z,17.70
2022-08-22T20:43:22.895Z,17.70
2022-08-22T20:46:34.492Z,17.70
2022-08-22T20:49:02.911Z,17.60
2022-08-22T20:51:32.787Z,17.50
2022-08-22T20:54:01.414Z,17.50
2022-08-22T20:57:00.223Z,17.50
2022-08-22T20:59:32.218Z,17.50
2022-08-22T21:02:34.341Z,17.40
2022-08-22T21:05:24.111Z,17.40
2022-08-22T21:08:14.333Z,17.40
2022-08-22T21:11:01.276Z,17.40
2022-08-22T21:13:32.592Z,17.30
2022-08-22T21:16:02.804Z,17.30
2022-08-22T21:18:33.402Z,17.10
2022-08-22T21:21:17.631Z,17.10
2022-08-22T21:23:47.652Z,17.10
2022-08-22T21:26:28.759Z,17.10
2022-08-22T21:29:20.999Z,16.90
2022-08-22T21:31:54.619Z,16.90
2022-08-22T21:34:41.240Z,16.80
2022-08-22T21:37:15.014Z,16.70
2022-08-22T21:39:45.958Z,16.70
2022-08-22T21:42:31.827Z,16.70
2022-08-22T21:45:02.931Z,16.60
2022-08-22T21:47:31.277Z,16.50
2022-08-22T21:50:13.188Z,16.40
2022-08-22T21:52:44.805Z,16.40
2022-08-22T21:55:24.388Z,16.40
2022-08-22T21:58:09.779Z,16.30
2022-08-22T22:00:51.469Z,16.20
2022-08-22T22:03:22.144Z,16.10
2022-08-22T22:05:50.970Z,16.00
2022-08-22T22:08:18.215Z,15.90
2022-08-22T22:10:47.514Z,15.80
2022-08-22T22:13:14.698Z,15.80
2022-08-22T22:15:47.541Z,15.70
2022-08-22T22:18:17.661Z,15.70
2022-08-22T22:20:46.009Z,15.70
2022-08-22T22:23:13.048Z,15.70
2022-08-22T22:25:42.420Z,15.70
2022-08-22T22:28:40.129Z,15.60
2022-08-22T22:31:07.940Z,15.60
2022-08-22T22:33:38.555Z,15.60
2022-08-22T22:36:09.164Z,15.60
2022-08-22T22:38:38.123Z,15.70
2022-08-22T22:41:05.264Z,15.60
2022-08-22T22:43:33.119Z,15.50
2022-08-22T22:46:00.206Z,15.40
2022-08-22T22:48:27.792Z,15.30
2022-08-22T22:50:55.224Z,15.20
2022-08-22T22:53:38.061Z,15.20
2022-08-22T22:56:09.136Z,15.20
2022-08-22T22:58:37.638Z,15.10
2022-08-22T23:01:18.316Z,15.10
2022-08-22T23:03:46.301Z,15.10
2022-08-22T23:06:15.432Z,15.00
2022-08-22T23:08:43.007Z,15.00
2022-08-22T23:11:12.735Z,14.90
2022-08-22T23:13:41.716Z,14.80
2022-08-22T23:16:15.986Z,14.70
2022-08-22T23:18:43.555Z,14.70
2022-08-22T23:21:14.743Z,14.70
2022-08-22T23:23:42.207Z,14.70
2022-08-22T23:26:10.622Z,14.60
2022-08-22T23:28:37.935Z,14.60
2022-08-22T23:31:27.090Z,14.60
2022-08-22T23:33:55.157Z,14.60
2022-08-22T23:36:23.647Z,14.60
2022-08-22T23:38:52.163Z,14.60
2022-08-22T23:41:21.779Z,14.60
2022-08-22T23:43:52.356Z,14.60
2022-08-22T23:46:20.915Z,14.40
2022-08-22T23:48:48.361Z,14.30
2022-08-22T23:51:17.152Z,14.20
2022-08-22T23:53:50.235Z,14.20
2022-08-22T23:56:32.649Z,14.20
2022-08-22T23:59:01.670Z,14.10
